sensor_id;sensor_type;location;lat;lon;timestamp;P1;durP1;ratioP1;P2;durP2;ratioP2
3967;SDS011;9221;42.646;23.380;2022-12-04T00:00:09;9.17;;;3.70;;
3967;SDS011;9221;42.646;23.380;2022-12-04T00:02:35;9.53;;;3.67;;
3967;SDS011;9221;42.646;23.380;2022-12-04T00:05:02;6.20;;;2.80;;
3967;SDS011;9221;42.646;23.380;2022-12-04T00:07:28;7.83;;;2.90;;
3967;SDS011;9221;42.646;23.380;2022-12-04T00:09:53;12.23;;;3.80;;
3967;SDS011;9221;42.646;23.380;2022-12-04T00:12:19;7.30;;;4.00;;
3967;SDS011;9221;42.646;23.380;2022-12-04T00:14:44;10.70;;;3.60;;
3967;SDS011;9221;42.646;23.380;2022-12-04T00:17:10;8.10;;;3.67;;
3967;SDS011;9221;42.646;23.380;2022-12-04T00:19:35;10.33;;;3.93;;
3967;SDS011;9221;42.646;23.380;2022-12-04T00:22:00;9.67;;;3.80;;
3967;SDS011;9221;42.646;23.380;2022-12-04T00:24:26;10.33;;;3.90;;
3967;SDS011;9221;42.646;23.380;2022-12-04T00:26:51;8.40;;;3.33;;
3967;SDS011;9221;42.646;23.380;2022-12-04T00:29:17;9.00;;;3.60;;
3967;SDS011;9221;42.646;23.380;2022-12-04T00:31:43;8.10;;;3.13;;
3967;SDS011;9221;42.646;23.380;2022-12-04T00:34:09;11.87;;;4.00;;
3967;SDS011;9221;42.646;23.380;2022-12-04T00:36:34;12.20;;;3.80;;
3967;SDS011;9221;42.646;23.380;2022-12-04T00:39:00;7.90;;;3.70;;
3967;SDS011;9221;42.646;23.380;2022-12-04T00:41:27;9.50;;;3.57;;
3967;SDS011;9221;42.646;23.380;2022-12-04T00:43:54;9.00;;;3.60;;
3967;SDS011;9221;42.646;23.380;2022-12-04T00:46:19;9.00;;;3.47;;
3967;SDS011;9221;42.646;23.380;2022-12-04T00:48:45;10.80;;;3.20;;
3967;SDS011;9221;42.646;23.380;2022-12-04T00:51:12;9.03;;;3.03;;
3967;SDS011;9221;42.646;23.380;2022-12-04T00:53:40;11.70;;;3.30;;
3967;SDS011;9221;42.646;23.380;2022-12-04T00:56:07;7.77;;;3.23;;
3967;SDS011;9221;42.646;23.380;2022-12-04T00:58:34;7.83;;;3.10;;
3967;SDS011;9221;42.646;23.380;2022-12-04T01:01:04;5.03;;;2.70;;
3967;SDS011;9221;42.646;23.380;2022-12-04T01:03:31;5.13;;;2.47;;
3967;SDS011;9221;42.646;23.380;2022-12-04T01:05:57;6.40;;;3.03;;
3967;SDS011;9221;42.646;23.380;2022-12-04T01:08:23;4.83;;;2.00;;
3967;SDS011;9221;42.646;23.380;2022-12-04T01:10:49;6.23;;;2.30;;
3967;SDS011;9221;42.646;23.380;2022-12-04T01:13:14;5.67;;;2.20;;
3967;SDS011;9221;42.646;23.380;2022-12-04T01:15:40;5.93;;;2.00;;
3967;SDS011;9221;42.646;23.380;2022-12-04T01:18:07;6.03;;;2.43;;
3967;SDS011;9221;42.646;23.380;2022-12-04T01:20:33;8.37;;;2.13;;
3967;SDS011;9221;42.646;23.380;2022-12-04T01:22:58;12.00;;;2.73;;
3967;SDS011;9221;42.646;23.380;2022-12-04T01:25:24;7.23;;;2.37;;
3967;SDS011;9221;42.646;23.380;2022-12-04T01:27:49;6.63;;;2.63;;
3967;SDS011;9221;42.646;23.380;2022-12-04T01:30:14;4.60;;;2.37;;
3967;SDS011;9221;42.646;23.380;2022-12-04T01:32:40;5.20;;;2.37;;
3967;SDS011;9221;42.646;23.380;2022-12-04T01:35:05;5.10;;;2.10;;
3967;SDS011;9221;42.646;23.380;2022-12-04T01:37:31;3.33;;;1.83;;
3967;SDS011;9221;42.646;23.380;2022-12-04T01:39:57;6.60;;;2.20;;
3967;SDS011;9221;42.646;23.380;2022-12-04T01:42:22;5.73;;;2.30;;
3967;SDS011;9221;42.646;23.380;2022-12-04T01:47:54;3.70;;;1.80;;
3967;SDS011;9221;42.646;23.380;2022-12-04T01:50:22;4.60;;;2.30;;
3967;SDS011;9221;42.646;23.380;2022-12-04T01:52:48;6.90;;;2.30;;
3967;SDS011;9221;42.646;23.380;2022-12-04T01:55:13;8.23;;;2.50;;
3967;SDS011;9221;42.646;23.380;2022-12-04T01:57:39;5.57;;;1.90;;
3967;SDS011;9221;42.646;23.380;2022-12-04T02:00:10;5.03;;;2.17;;
3967;SDS011;9221;42.646;23.380;2022-12-04T02:02:39;4.50;;;2.10;;
3967;SDS011;9221;42.646;23.380;2022-12-04T02:05:08;3.53;;;2.23;;
3967;SDS011;9221;42.646;23.380;2022-12-04T02:07:36;4.87;;;1.70;;
3967;SDS011;9221;42.646;23.380;2022-12-04T02:10:03;5.43;;;1.80;;
3967;SDS011;9221;42.646;23.380;2022-12-04T02:18:08;8.00;;;2.57;;
3967;SDS011;9221;42.646;23.380;2022-12-04T02:23:19;4.93;;;1.57;;
3967;SDS011;9221;42.646;23.380;2022-12-04T02:28:56;3.13;;;1.63;;
3967;SDS011;9221;42.646;23.380;2022-12-04T02:31:34;4.47;;;1.67;;
3967;SDS011;9221;42.646;23.380;2022-12-04T02:34:07;2.50;;;1.30;;
3967;SDS011;9221;42.646;23.380;2022-12-04T02:36:46;2.97;;;1.50;;
3967;SDS011;9221;42.646;23.380;2022-12-04T02:45:00;4.43;;;1.57;;
3967;SDS011;9221;42.646;23.380;2022-12-04T02:47:30;3.30;;;1.50;;
3967;SDS011;9221;42.646;23.380;2022-12-04T02:49:59;2.03;;;1.17;;
3967;SDS011;9221;42.646;23.380;2022-12-04T02:52:31;3.30;;;1.70;;
3967;SDS011;9221;42.646;23.380;2022-12-04T02:55:04;2.23;;;1.33;;
3967;SDS011;9221;42.646;23.380;2022-12-04T02:57:36;8.20;;;1.70;;
3967;SDS011;9221;42.646;23.380;2022-12-04T03:00:05;2.40;;;1.23;;
3967;SDS011;9221;42.646;23.380;2022-12-04T03:05:26;2.77;;;1.17;;
3967;SDS011;9221;42.646;23.380;2022-12-04T03:07:59;3.63;;;1.60;;
3967;SDS011;9221;42.646;23.380;2022-12-04T03:10:36;2.43;;;1.20;;
3967;SDS011;9221;42.646;23.380;2022-12-04T03:13:06;1.10;;;0.80;;
3967;SDS011;9221;42.646;23.380;2022-12-04T03:15:34;1.73;;;1.17;;
3967;SDS011;9221;42.646;23.380;2022-12-04T03:18:11;2.97;;;1.37;;
3967;SDS011;9221;42.646;23.380;2022-12-04T03:20:47;2.87;;;1.40;;
3967;SDS011;9221;42.646;23.380;2022-12-04T03:23:15;1.13;;;0.70;;
3967;SDS011;9221;42.646;23.380;2022-12-04T03:25:46;1.97;;;0.90;;
3967;SDS011;9221;42.646;23.380;2022-12-04T03:29:06;1.53;;;1.00;;
3967;SDS011;9221;42.646;23.380;2022-12-04T03:34:12;1.23;;;1.00;;
3967;SDS011;9221;42.646;23.380;2022-12-04T03:36:48;2.80;;;1.20;;
3967;SDS011;9221;42.646;23.380;2022-12-04T03:39:37;2.40;;;1.40;;
3967;SDS011;9221;42.646;23.380;2022-12-04T03:42:20;1.83;;;1.00;;
3967;SDS011;9221;42.646;23.380;2022-12-04T03:44:55;2.03;;;1.13;;
3967;SDS011;9221;42.646;23.380;2022-12-04T03:50:11;3.00;;;1.27;;
3967;SDS011;9221;42.646;23.380;2022-12-04T03:55:33;4.07;;;1.20;;
3967;SDS011;9221;42.646;23.380;2022-12-04T03:58:05;1.20;;;1.10;;
3967;SDS011;9221;42.646;23.380;2022-12-04T04:00:38;1.70;;;1.00;;
3967;SDS011;9221;42.646;23.380;2022-12-04T04:03:06;1.50;;;1.00;;
3967;SDS011;9221;42.646;23.380;2022-12-04T04:05:41;1.20;;;1.10;;
3967;SDS011;9221;42.646;23.380;2022-12-04T04:08:12;1.63;;;1.13;;
3967;SDS011;9221;42.646;23.380;2022-12-04T04:10:59;3.10;;;1.50;;
3967;SDS011;9221;42.646;23.380;2022-12-04T04:13:38;3.00;;;1.17;;
3967;SDS011;9221;42.646;23.380;2022-12-04T04:16:27;1.33;;;1.00;;
3967;SDS011;9221;42.646;23.380;2022-12-04T04:19:14;9.57;;;1.37;;
3967;SDS011;9221;42.646;23.380;2022-12-04T04:22:00;3.30;;;1.13;;
3967;SDS011;9221;42.646;23.380;2022-12-04T04:24:51;2.40;;;1.20;;
3967;SDS011;9221;42.646;23.380;2022-12-04T04:27:22;1.60;;;0.90;;
3967;SDS011;9221;42.646;23.380;2022-12-04T04:29:47;3.70;;;1.60;;
3967;SDS011;9221;42.646;23.380;2022-12-04T04:38:02;1.33;;;1.00;;
3967;SDS011;9221;42.646;23.380;2022-12-04T04:43:35;4.50;;;1.70;;
3967;SDS011;9221;42.646;23.380;2022-12-04T04:46:12;3.40;;;1.47;;
3967;SDS011;9221;42.646;23.380;2022-12-04T04:48:46;2.70;;;1.27;;
3967;SDS011;9221;42.646;23.380;2022-12-04T04:51:15;4.90;;;1.97;;
3967;SDS011;9221;42.646;23.380;2022-12-04T04:53:46;5.00;;;1.63;;
3967;SDS011;9221;42.646;23.380;2022-12-04T04:56:14;3.07;;;1.17;;
3967;SDS011;9221;42.646;23.380;2022-12-04T04:58:41;3.17;;;1.40;;
3967;SDS011;9221;42.646;23.380;2022-12-04T05:01:11;1.80;;;1.40;;
3967;SDS011;9221;42.646;23.380;2022-12-04T05:03:44;2.93;;;1.77;;
3967;SDS011;9221;42.646;23.380;2022-12-04T05:06:10;2.90;;;1.67;;
3967;SDS011;9221;42.646;23.380;2022-12-04T05:08:36;3.77;;;1.70;;
3967;SDS011;9221;42.646;23.380;2022-12-04T05:11:02;3.30;;;1.63;;
3967;SDS011;9221;42.646;23.380;2022-12-04T05:13:28;2.90;;;1.43;;
3967;SDS011;9221;42.646;23.380;2022-12-04T05:15:58;6.53;;;2.00;;
3967;SDS011;9221;42.646;23.380;2022-12-04T05:18:30;3.23;;;1.50;;
3967;SDS011;9221;42.646;23.380;2022-12-04T05:20:57;6.50;;;2.50;;
3967;SDS011;9221;42.646;23.380;2022-12-04T05:23:23;5.40;;;2.07;;
3967;SDS011;9221;42.646;23.380;2022-12-04T05:25:49;4.97;;;2.30;;
3967;SDS011;9221;42.646;23.380;2022-12-04T05:28:14;4.30;;;1.57;;
3967;SDS011;9221;42.646;23.380;2022-12-04T05:30:40;6.03;;;2.40;;
3967;SDS011;9221;42.646;23.380;2022-12-04T05:33:05;6.13;;;2.00;;
3967;SDS011;9221;42.646;23.380;2022-12-04T05:35:31;4.70;;;2.13;;
3967;SDS011;9221;42.646;23.380;2022-12-04T05:37:56;4.17;;;1.80;;
3967;SDS011;9221;42.646;23.380;2022-12-04T05:40:21;5.30;;;2.43;;
3967;SDS011;9221;42.646;23.380;2022-12-04T05:42:47;4.30;;;2.30;;
3967;SDS011;9221;42.646;23.380;2022-12-04T05:45:12;9.83;;;3.17;;
3967;SDS011;9221;42.646;23.380;2022-12-04T05:47:38;4.93;;;2.03;;
3967;SDS011;9221;42.646;23.380;2022-12-04T05:50:05;5.70;;;2.13;;
3967;SDS011;9221;42.646;23.380;2022-12-04T05:52:31;4.23;;;2.27;;
3967;SDS011;9221;42.646;23.380;2022-12-04T05:54:57;7.20;;;2.20;;
3967;SDS011;9221;42.646;23.380;2022-12-04T05:57:22;8.47;;;2.43;;
3967;SDS011;9221;42.646;23.380;2022-12-04T05:59:49;5.07;;;1.80;;
3967;SDS011;9221;42.646;23.380;2022-12-04T06:02:14;8.30;;;3.07;;
3967;SDS011;9221;42.646;23.380;2022-12-04T06:04:40;7.40;;;2.63;;
3967;SDS011;9221;42.646;23.380;2022-12-04T06:07:05;7.23;;;2.30;;
3967;SDS011;9221;42.646;23.380;2022-12-04T06:09:30;6.70;;;2.43;;
3967;SDS011;9221;42.646;23.380;2022-12-04T06:11:56;7.80;;;3.40;;
3967;SDS011;9221;42.646;23.380;2022-12-04T06:14:22;5.37;;;2.40;;
3967;SDS011;9221;42.646;23.380;2022-12-04T06:16:47;4.53;;;2.17;;
3967;SDS011;9221;42.646;23.380;2022-12-04T06:19:14;6.07;;;3.00;;
3967;SDS011;9221;42.646;23.380;2022-12-04T06:21:42;6.07;;;2.80;;
3967;SDS011;9221;42.646;23.380;2022-12-04T06:24:13;4.70;;;2.07;;
3967;SDS011;9221;42.646;23.380;2022-12-04T06:26:41;5.83;;;2.60;;
3967;SDS011;9221;42.646;23.380;2022-12-04T06:29:07;4.27;;;2.33;;
3967;SDS011;9221;42.646;23.380;2022-12-04T06:31:33;5.10;;;2.13;;
3967;SDS011;9221;42.646;23.380;2022-12-04T06:34:00;3.07;;;1.80;;
3967;SDS011;9221;42.646;23.380;2022-12-04T06:36:25;3.47;;;2.00;;
3967;SDS011;9221;42.646;23.380;2022-12-04T06:38:52;7.43;;;2.60;;
3967;SDS011;9221;42.646;23.380;2022-12-04T06:41:19;5.87;;;2.90;;
3967;SDS011;9221;42.646;23.380;2022-12-04T06:43:45;4.20;;;2.23;;
3967;SDS011;9221;42.646;23.380;2022-12-04T06:46:16;4.90;;;2.33;;
3967;SDS011;9221;42.646;23.380;2022-12-04T06:48:43;4.57;;;2.20;;
3967;SDS011;9221;42.646;23.380;2022-12-04T06:54:08;6.57;;;2.50;;
3967;SDS011;9221;42.646;23.380;2022-12-04T06:56:34;7.67;;;2.33;;
3967;SDS011;9221;42.646;23.380;2022-12-04T06:59:00;15.43;;;2.03;;
3967;SDS011;9221;42.646;23.380;2022-12-04T07:01:27;6.83;;;2.87;;
3967;SDS011;9221;42.646;23.380;2022-12-04T07:03:54;9.20;;;2.63;;
3967;SDS011;9221;42.646;23.380;2022-12-04T07:06:22;5.70;;;1.97;;
3967;SDS011;9221;42.646;23.380;2022-12-04T07:08:50;5.10;;;2.30;;
3967;SDS011;9221;42.646;23.380;2022-12-04T07:11:17;9.50;;;2.50;;
3967;SDS011;9221;42.646;23.380;2022-12-04T07:13:43;4.87;;;2.03;;
3967;SDS011;9221;42.646;23.380;2022-12-04T07:16:10;4.47;;;2.27;;
3967;SDS011;9221;42.646;23.380;2022-12-04T07:18:38;6.37;;;2.10;;
3967;SDS011;9221;42.646;23.380;2022-12-04T07:21:04;5.87;;;2.60;;
3967;SDS011;9221;42.646;23.380;2022-12-04T07:23:34;6.67;;;2.60;;
3967;SDS011;9221;42.646;23.380;2022-12-04T07:26:04;9.30;;;2.73;;
3967;SDS011;9221;42.646;23.380;2022-12-04T07:28:31;4.33;;;1.83;;
3967;SDS011;9221;42.646;23.380;2022-12-04T07:30:56;4.90;;;2.30;;
3967;SDS011;9221;42.646;23.380;2022-12-04T07:33:22;8.83;;;2.60;;
3967;SDS011;9221;42.646;23.380;2022-12-04T07:35:55;5.10;;;2.40;;
3967;SDS011;9221;42.646;23.380;2022-12-04T07:38:21;6.60;;;2.07;;
3967;SDS011;9221;42.646;23.380;2022-12-04T07:40:46;7.03;;;2.77;;
3967;SDS011;9221;42.646;23.380;2022-12-04T07:43:12;5.30;;;2.30;;
3967;SDS011;9221;42.646;23.380;2022-12-04T07:45:37;8.63;;;2.70;;
3967;SDS011;9221;42.646;23.380;2022-12-04T07:48:03;7.27;;;3.00;;
3967;SDS011;9221;42.646;23.380;2022-12-04T07:50:29;7.43;;;2.13;;
3967;SDS011;9221;42.646;23.380;2022-12-04T07:52:54;8.47;;;3.00;;
3967;SDS011;9221;42.646;23.380;2022-12-04T07:55:19;5.13;;;2.63;;
3967;SDS011;9221;42.646;23.380;2022-12-04T07:57:45;7.67;;;2.63;;
3967;SDS011;9221;42.646;23.380;2022-12-04T08:00:10;5.03;;;2.40;;
3967;SDS011;9221;42.646;23.380;2022-12-04T08:02:36;5.80;;;2.03;;
3967;SDS011;9221;42.646;23.380;2022-12-04T08:05:02;7.80;;;2.43;;
3967;SDS011;9221;42.646;23.380;2022-12-04T08:07:27;5.20;;;1.73;;
3967;SDS011;9221;42.646;23.380;2022-12-04T08:09:52;8.23;;;2.83;;
3967;SDS011;9221;42.646;23.380;2022-12-04T08:12:18;5.00;;;2.30;;
3967;SDS011;9221;42.646;23.380;2022-12-04T08:14:43;3.50;;;1.97;;
3967;SDS011;9221;42.646;23.380;2022-12-04T08:17:08;7.00;;;2.03;;
3967;SDS011;9221;42.646;23.380;2022-12-04T08:19:34;4.13;;;2.40;;
3967;SDS011;9221;42.646;23.380;2022-12-04T08:21:59;7.23;;;2.20;;
3967;SDS011;9221;42.646;23.380;2022-12-04T08:24:25;2.70;;;1.43;;
3967;SDS011;9221;42.646;23.380;2022-12-04T08:26:50;4.13;;;1.63;;
3967;SDS011;9221;42.646;23.380;2022-12-04T08:29:16;3.00;;;1.47;;
3967;SDS011;9221;42.646;23.380;2022-12-04T08:31:41;4.80;;;2.10;;
3967;SDS011;9221;42.646;23.380;2022-12-04T08:34:06;3.50;;;1.73;;
3967;SDS011;9221;42.646;23.380;2022-12-04T08:36:33;5.47;;;2.07;;
3967;SDS011;9221;42.646;23.380;2022-12-04T08:41:43;3.83;;;1.80;;
3967;SDS011;9221;42.646;23.380;2022-12-04T08:44:10;5.00;;;2.20;;
3967;SDS011;9221;42.646;23.380;2022-12-04T08:46:35;5.80;;;1.97;;
3967;SDS011;9221;42.646;23.380;2022-12-04T08:49:01;6.27;;;1.53;;
3967;SDS011;9221;42.646;23.380;2022-12-04T08:51:28;5.70;;;1.50;;
3967;SDS011;9221;42.646;23.380;2022-12-04T08:53:56;3.97;;;2.00;;
3967;SDS011;9221;42.646;23.380;2022-12-04T08:56:23;2.80;;;1.47;;
3967;SDS011;9221;42.646;23.380;2022-12-04T08:58:50;3.23;;;1.37;;
3967;SDS011;9221;42.646;23.380;2022-12-04T09:01:16;2.50;;;0.73;;
3967;SDS011;9221;42.646;23.380;2022-12-04T09:03:41;4.63;;;1.23;;
3967;SDS011;9221;42.646;23.380;2022-12-04T09:06:08;2.23;;;1.30;;
3967;SDS011;9221;42.646;23.380;2022-12-04T09:08:35;3.27;;;1.60;;
3967;SDS011;9221;42.646;23.380;2022-12-04T09:11:05;4.13;;;1.40;;
3967;SDS011;9221;42.646;23.380;2022-12-04T09:13:33;6.90;;;1.80;;
3967;SDS011;9221;42.646;23.380;2022-12-04T09:16:01;1.80;;;1.20;;
3967;SDS011;9221;42.646;23.380;2022-12-04T09:18:28;3.80;;;1.63;;
3967;SDS011;9221;42.646;23.380;2022-12-04T09:20:55;6.00;;;1.47;;
3967;SDS011;9221;42.646;23.380;2022-12-04T09:23:21;4.90;;;2.10;;
3967;SDS011;9221;42.646;23.380;2022-12-04T09:25:47;4.97;;;1.33;;
3967;SDS011;9221;42.646;23.380;2022-12-04T09:28:12;7.80;;;2.50;;
3967;SDS011;9221;42.646;23.380;2022-12-04T09:30:38;3.43;;;1.43;;
3967;SDS011;9221;42.646;23.380;2022-12-04T09:33:03;2.67;;;1.30;;
3967;SDS011;9221;42.646;23.380;2022-12-04T09:35:28;3.97;;;1.83;;
3967;SDS011;9221;42.646;23.380;2022-12-04T09:37:54;3.70;;;1.50;;
3967;SDS011;9221;42.646;23.380;2022-12-04T09:40:22;4.23;;;1.80;;
3967;SDS011;9221;42.646;23.380;2022-12-04T09:43:01;2.47;;;1.00;;
3967;SDS011;9221;42.646;23.380;2022-12-04T09:45:28;3.90;;;1.43;;
3967;SDS011;9221;42.646;23.380;2022-12-04T09:48:09;4.00;;;1.83;;
3967;SDS011;9221;42.646;23.380;2022-12-04T09:50:38;3.70;;;1.80;;
3967;SDS011;9221;42.646;23.380;2022-12-04T09:53:25;5.80;;;1.67;;
3967;SDS011;9221;42.646;23.380;2022-12-04T09:55:55;4.87;;;1.80;;
3967;SDS011;9221;42.646;23.380;2022-12-04T09:58:31;2.80;;;1.50;;
3967;SDS011;9221;42.646;23.380;2022-12-04T10:01:15;4.47;;;1.83;;
3967;SDS011;9221;42.646;23.380;2022-12-04T10:03:45;3.70;;;1.40;;
3967;SDS011;9221;42.646;23.380;2022-12-04T10:06:18;3.87;;;1.70;;
3967;SDS011;9221;42.646;23.380;2022-12-04T10:08:50;3.77;;;1.97;;
3967;SDS011;9221;42.646;23.380;2022-12-04T10:17:10;4.50;;;2.03;;
3967;SDS011;9221;42.646;23.380;2022-12-04T10:19:42;3.40;;;1.73;;
3967;SDS011;9221;42.646;23.380;2022-12-04T10:22:26;3.23;;;1.50;;
3967;SDS011;9221;42.646;23.380;2022-12-04T10:25:02;2.90;;;1.27;;
3967;SDS011;9221;42.646;23.380;2022-12-04T10:30:47;3.73;;;1.60;;
3967;SDS011;9221;42.646;23.380;2022-12-04T10:33:18;3.37;;;1.50;;
3967;SDS011;9221;42.646;23.380;2022-12-04T10:35:49;4.70;;;1.60;;
3967;SDS011;9221;42.646;23.380;2022-12-04T10:41:04;4.63;;;2.20;;
3967;SDS011;9221;42.646;23.380;2022-12-04T10:43:42;2.60;;;1.37;;
3967;SDS011;9221;42.646;23.380;2022-12-04T10:46:13;5.37;;;2.23;;
3967;SDS011;9221;42.646;23.380;2022-12-04T10:48:43;5.40;;;1.90;;
3967;SDS011;9221;42.646;23.380;2022-12-04T10:51:16;3.13;;;1.43;;
3967;SDS011;9221;42.646;23.380;2022-12-04T10:53:43;6.43;;;2.00;;
3967;SDS011;9221;42.646;23.380;2022-12-04T10:56:14;4.73;;;2.23;;
3967;SDS011;9221;42.646;23.380;2022-12-04T10:58:54;5.07;;;1.63;;
3967;SDS011;9221;42.646;23.380;2022-12-04T11:01:20;5.73;;;2.30;;
3967;SDS011;9221;42.646;23.380;2022-12-04T11:03:46;10.40;;;2.40;;
3967;SDS011;9221;42.646;23.380;2022-12-04T11:06:35;4.20;;;2.07;;
3967;SDS011;9221;42.646;23.380;2022-12-04T11:09:00;7.93;;;2.53;;
3967;SDS011;9221;42.646;23.380;2022-12-04T11:11:28;4.33;;;1.97;;
3967;SDS011;9221;42.646;23.380;2022-12-04T11:16:42;6.97;;;1.53;;
3967;SDS011;9221;42.646;23.380;2022-12-04T11:19:29;4.13;;;1.97;;
3967;SDS011;9221;42.646;23.380;2022-12-04T11:21:58;6.63;;;1.87;;
3967;SDS011;9221;42.646;23.380;2022-12-04T11:24:29;5.40;;;2.00;;
3967;SDS011;9221;42.646;23.380;2022-12-04T11:26:57;6.07;;;2.47;;
3967;SDS011;9221;42.646;23.380;2022-12-04T11:29:45;2.73;;;1.43;;
3967;SDS011;9221;42.646;23.380;2022-12-04T11:32:29;4.50;;;2.10;;
3967;SDS011;9221;42.646;23.380;2022-12-04T11:34:58;5.20;;;1.77;;
3967;SDS011;9221;42.646;23.380;2022-12-04T11:37:30;2.97;;;1.53;;
3967;SDS011;9221;42.646;23.380;2022-12-04T11:39:58;5.47;;;2.50;;
3967;SDS011;9221;42.646;23.380;2022-12-04T11:42:26;2.83;;;1.30;;
3967;SDS011;9221;42.646;23.380;2022-12-04T11:47:29;5.23;;;2.20;;
3967;SDS011;9221;42.646;23.380;2022-12-04T11:55:01;5.83;;;2.90;;
3967;SDS011;9221;42.646;23.380;2022-12-04T12:00:18;8.70;;;3.07;;
3967;SDS011;9221;42.646;23.380;2022-12-04T12:11:25;7.67;;;2.70;;
3967;SDS011;9221;42.646;23.380;2022-12-04T12:14:09;8.80;;;3.40;;
3967;SDS011;9221;42.646;23.380;2022-12-04T12:23:07;6.50;;;2.67;;
3967;SDS011;9221;42.646;23.380;2022-12-04T12:25:56;8.00;;;3.07;;
3967;SDS011;9221;42.646;23.380;2022-12-04T12:28:50;5.00;;;2.63;;
3967;SDS011;9221;42.646;23.380;2022-12-04T12:34:15;8.37;;;3.50;;
3967;SDS011;9221;42.646;23.380;2022-12-04T12:36:53;5.53;;;2.60;;
3967;SDS011;9221;42.646;23.380;2022-12-04T12:39:22;10.13;;;3.17;;
3967;SDS011;9221;42.646;23.380;2022-12-04T12:41:51;9.70;;;3.00;;
3967;SDS011;9221;42.646;23.380;2022-12-04T12:44:24;5.10;;;2.17;;
3967;SDS011;9221;42.646;23.380;2022-12-04T12:47:07;8.23;;;3.27;;
3967;SDS011;9221;42.646;23.380;2022-12-04T12:49:45;6.53;;;2.77;;
3967;SDS011;9221;42.646;23.380;2022-12-04T12:54:55;10.80;;;3.23;;
3967;SDS011;9221;42.646;23.380;2022-12-04T13:00:05;8.83;;;3.80;;
3967;SDS011;9221;42.646;23.380;2022-12-04T13:02:35;7.83;;;3.60;;
3967;SDS011;9221;42.646;23.380;2022-12-04T13:05:08;7.93;;;3.60;;
3967;SDS011;9221;42.646;23.380;2022-12-04T13:10:22;10.60;;;3.70;;
3967;SDS011;9221;42.646;23.380;2022-12-04T13:13:01;15.53;;;4.17;;
3967;SDS011;9221;42.646;23.380;2022-12-04T13:15:36;7.17;;;3.00;;
3967;SDS011;9221;42.646;23.380;2022-12-04T13:18:06;8.50;;;3.40;;
3967;SDS011;9221;42.646;23.380;2022-12-04T13:20:42;8.77;;;2.40;;
3967;SDS011;9221;42.646;23.380;2022-12-04T13:23:25;6.40;;;2.97;;
3967;SDS011;9221;42.646;23.380;2022-12-04T13:26:09;10.60;;;3.00;;
3967;SDS011;9221;42.646;23.380;2022-12-04T13:37:15;10.47;;;2.70;;
3967;SDS011;9221;42.646;23.380;2022-12-04T13:46:00;10.07;;;2.80;;
3967;SDS011;9221;42.646;23.380;2022-12-04T13:48:33;7.93;;;2.90;;
3967;SDS011;9221;42.646;23.380;2022-12-04T13:53:46;7.10;;;3.20;;
3967;SDS011;9221;42.646;23.380;2022-12-04T13:56:28;7.97;;;3.40;;
3967;SDS011;9221;42.646;23.380;2022-12-04T13:58:58;4.60;;;2.57;;
3967;SDS011;9221;42.646;23.380;2022-12-04T14:01:27;6.47;;;3.10;;
3967;SDS011;9221;42.646;23.380;2022-12-04T14:04:00;6.10;;;2.63;;
3967;SDS011;9221;42.646;23.380;2022-12-04T14:06:36;11.03;;;3.50;;
3967;SDS011;9221;42.646;23.380;2022-12-04T14:09:07;7.57;;;3.57;;
3967;SDS011;9221;42.646;23.380;2022-12-04T14:11:46;7.63;;;2.90;;
3967;SDS011;9221;42.646;23.380;2022-12-04T14:14:23;7.63;;;2.60;;
3967;SDS011;9221;42.646;23.380;2022-12-04T14:16:52;8.97;;;3.13;;
3967;SDS011;9221;42.646;23.380;2022-12-04T14:19:25;7.57;;;3.10;;
3967;SDS011;9221;42.646;23.380;2022-12-04T14:21:54;7.83;;;3.23;;
3967;SDS011;9221;42.646;23.380;2022-12-04T14:27:47;10.33;;;3.30;;
3967;SDS011;9221;42.646;23.380;2022-12-04T14:29:56;6.60;;;2.70;;
3967;SDS011;9221;42.646;23.380;2022-12-04T14:32:26;9.50;;;2.93;;
3967;SDS011;9221;42.646;23.380;2022-12-04T14:34:55;9.43;;;3.17;;
3967;SDS011;9221;42.646;23.380;2022-12-04T14:37:29;9.00;;;3.40;;
3967;SDS011;9221;42.646;23.380;2022-12-04T14:39:58;9.57;;;3.67;;
3967;SDS011;9221;42.646;23.380;2022-12-04T14:42:31;7.43;;;2.90;;
3967;SDS011;9221;42.646;23.380;2022-12-04T14:45:02;5.53;;;2.83;;
3967;SDS011;9221;42.646;23.380;2022-12-04T14:47:59;14.20;;;3.70;;
3967;SDS011;9221;42.646;23.380;2022-12-04T14:54:11;6.37;;;3.07;;
3967;SDS011;9221;42.646;23.380;2022-12-04T14:59:38;7.07;;;3.33;;
3967;SDS011;9221;42.646;23.380;2022-12-04T15:02:14;10.80;;;3.40;;
3967;SDS011;9221;42.646;23.380;2022-12-04T15:04:42;5.10;;;2.63;;
3967;SDS011;9221;42.646;23.380;2022-12-04T15:07:20;8.13;;;3.20;;
3967;SDS011;9221;42.646;23.380;2022-12-04T15:09:54;16.93;;;2.60;;
3967;SDS011;9221;42.646;23.380;2022-12-04T15:12:47;8.47;;;3.20;;
3967;SDS011;9221;42.646;23.380;2022-12-04T15:15:22;8.13;;;2.80;;
3967;SDS011;9221;42.646;23.380;2022-12-04T15:23:18;6.97;;;2.70;;
3967;SDS011;9221;42.646;23.380;2022-12-04T15:25:52;6.67;;;3.43;;
3967;SDS011;9221;42.646;23.380;2022-12-04T15:30:51;7.23;;;3.03;;
3967;SDS011;9221;42.646;23.380;2022-12-04T15:33:18;10.43;;;3.93;;
3967;SDS011;9221;42.646;23.380;2022-12-04T15:35:57;16.00;;;3.50;;
3967;SDS011;9221;42.646;23.380;2022-12-04T15:38:29;7.20;;;3.60;;
3967;SDS011;9221;42.646;23.380;2022-12-04T15:40:58;8.67;;;3.40;;
3967;SDS011;9221;42.646;23.380;2022-12-04T15:43:46;9.33;;;3.20;;
3967;SDS011;9221;42.646;23.380;2022-12-04T15:46:14;7.03;;;3.10;;
3967;SDS011;9221;42.646;23.380;2022-12-04T15:48:46;6.33;;;3.20;;
3967;SDS011;9221;42.646;23.380;2022-12-04T15:51:11;8.17;;;3.63;;
3967;SDS011;9221;42.646;23.380;2022-12-04T15:53:42;7.87;;;3.60;;
3967;SDS011;9221;42.646;23.380;2022-12-04T15:56:15;8.67;;;3.70;;
3967;SDS011;9221;42.646;23.380;2022-12-04T15:58:50;8.43;;;2.80;;
3967;SDS011;9221;42.646;23.380;2022-12-04T16:01:20;15.00;;;3.67;;
3967;SDS011;9221;42.646;23.380;2022-12-04T16:03:52;13.80;;;3.67;;
3967;SDS011;9221;42.646;23.380;2022-12-04T16:06:29;9.10;;;3.40;;
3967;SDS011;9221;42.646;23.380;2022-12-04T16:08:57;11.20;;;3.30;;
3967;SDS011;9221;42.646;23.380;2022-12-04T16:11:42;8.20;;;3.53;;
3967;SDS011;9221;42.646;23.380;2022-12-04T16:16:41;8.77;;;3.50;;
3967;SDS011;9221;42.646;23.380;2022-12-04T16:19:10;9.67;;;3.30;;
3967;SDS011;9221;42.646;23.380;2022-12-04T16:21:39;9.77;;;3.50;;
3967;SDS011;9221;42.646;23.380;2022-12-04T16:24:05;12.43;;;3.90;;
3967;SDS011;9221;42.646;23.380;2022-12-04T16:26:31;7.33;;;3.57;;
3967;SDS011;9221;42.646;23.380;2022-12-04T16:28:57;11.67;;;4.40;;
3967;SDS011;9221;42.646;23.380;2022-12-04T16:31:23;13.77;;;4.10;;
3967;SDS011;9221;42.646;23.380;2022-12-04T16:33:50;11.07;;;4.07;;
3967;SDS011;9221;42.646;23.380;2022-12-04T16:36:16;10.83;;;4.50;;
3967;SDS011;9221;42.646;23.380;2022-12-04T16:38:42;10.97;;;3.37;;
3967;SDS011;9221;42.646;23.380;2022-12-04T16:41:14;8.10;;;3.40;;
3967;SDS011;9221;42.646;23.380;2022-12-04T16:43:40;8.80;;;3.10;;
3967;SDS011;9221;42.646;23.380;2022-12-04T16:46:08;8.40;;;3.27;;
3967;SDS011;9221;42.646;23.380;2022-12-04T16:48:37;10.10;;;3.37;;
3967;SDS011;9221;42.646;23.380;2022-12-04T16:51:03;8.83;;;3.40;;
3967;SDS011;9221;42.646;23.380;2022-12-04T16:53:28;7.70;;;2.90;;
3967;SDS011;9221;42.646;23.380;2022-12-04T16:55:54;7.47;;;3.30;;
3967;SDS011;9221;42.646;23.380;2022-12-04T16:58:19;9.87;;;3.40;;
3967;SDS011;9221;42.646;23.380;2022-12-04T17:00:48;7.17;;;2.97;;
3967;SDS011;9221;42.646;23.380;2022-12-04T17:03:19;7.83;;;2.60;;
3967;SDS011;9221;42.646;23.380;2022-12-04T17:05:48;12.00;;;3.00;;
3967;SDS011;9221;42.646;23.380;2022-12-04T17:08:14;8.77;;;3.10;;
3967;SDS011;9221;42.646;23.380;2022-12-04T17:10:39;9.93;;;3.57;;
3967;SDS011;9221;42.646;23.380;2022-12-04T17:13:04;13.67;;;3.60;;
3967;SDS011;9221;42.646;23.380;2022-12-04T17:15:30;14.00;;;3.00;;
3967;SDS011;9221;42.646;23.380;2022-12-04T17:17:55;9.60;;;3.07;;
3967;SDS011;9221;42.646;23.380;2022-12-04T17:20:21;4.80;;;2.63;;
3967;SDS011;9221;42.646;23.380;2022-12-04T17:22:47;5.67;;;2.50;;
3967;SDS011;9221;42.646;23.380;2022-12-04T17:25:13;8.23;;;2.43;;
3967;SDS011;9221;42.646;23.380;2022-12-04T17:27:39;8.03;;;2.63;;
3967;SDS011;9221;42.646;23.380;2022-12-04T17:30:05;6.40;;;2.37;;